Time,TemperatureF,DewpointF,PressureIn,WindDirection,WindDirectionDegrees,WindSpeedMPH,WindSpeedGustMPH,Humidity,HourlyPrecipIn,Conditions,Clouds,dailyrainin,SolarRadiationWatts/m^2,SoftwareType,DateUTC
2013-07-01 00:33:00,71.0,53.0,-100.00,ESE,108,7.0,9.0,53,0.00,,,0.00,0.000000,,2013-07-01 06:33:00,
2013-07-01 00:43:00,71.0,53.0,-100.00,ESE,108,7.0,9.0,53,0.00,,,0.00,0.000000,,2013-07-01 06:43:00,
2013-07-01 00:53:00,71.0,53.0,-100.00,ESE,108,7.0,9.0,53,0.00,,,0.00,0.000000,,2013-07-01 06:53:00,
2013-07-01 01:33:00,69.0,51.0,-100.00,ESE,116,7.0,12.0,53,0.00,,,0.00,0.000000,,2013-07-01 07:33:00,
2013-07-01 01:43:00,69.0,51.0,-100.00,ESE,116,7.0,12.0,53,0.00,,,0.00,0.000000,,2013-07-01 07:43:00,
2013-07-01 01:53:00,69.0,51.0,-100.00,ESE,116,7.0,12.0,53,0.00,,,0.00,0.000000,,2013-07-01 07:53:00,
2013-07-01 02:33:00,67.0,49.0,-100.00,SSE,160,6.0,11.0,52,0.00,,,0.00,0.000000,,2013-07-01 08:33:00,
2013-07-01 02:42:00,67.0,49.0,-100.00,SSE,160,6.0,11.0,52,0.00,,,0.00,0.000000,,2013-07-01 08:42:00,
2013-07-01 02:52:00,67.0,49.0,-100.00,SSE,160,6.0,11.0,52,0.00,,,0.00,0.000000,,2013-07-01 08:52:00,
2013-07-01 03:34:00,69.0,53.0,-100.00,East,90,4.0,6.0,56,0.00,,,0.00,0.000000,,2013-07-01 09:34:00,
2013-07-01 03:43:00,69.0,53.0,-100.00,East,90,4.0,6.0,56,0.00,,,0.00,0.000000,,2013-07-01 09:43:00,
2013-07-01 03:53:00,69.0,53.0,-100.00,East,90,4.0,6.0,56,0.00,,,0.00,0.000000,,2013-07-01 09:53:00,
2013-07-01 04:33:00,63.0,50.0,-100.00,SSW,210,1.0,8.0,63,0.00,,,0.00,0.000000,,2013-07-01 10:33:00,
2013-07-01 04:42:00,63.0,50.0,-100.00,SSW,210,1.0,8.0,63,0.00,,,0.00,0.000000,,2013-07-01 10:42:00,
2013-07-01 04:52:00,63.0,50.0,-100.00,SSW,210,1.0,8.0,63,0.00,,,0.00,0.000000,,2013-07-01 10:52:00,
2013-07-01 05:33:00,60.0,53.0,-100.00,SE,135,5.0,6.0,77,0.00,,,0.00,0.000000,,2013-07-01 11:33:00,
2013-07-01 05:43:00,60.0,53.0,-100.00,SE,135,5.0,6.0,77,0.00,,,0.00,0.000000,,2013-07-01 11:43:00,
2013-07-01 05:52:00,60.0,53.0,-100.00,SE,135,5.0,6.0,77,0.00,,,0.00,0.000000,,2013-07-01 11:52:00,
2013-07-01 06:33:00,62.0,54.0,-100.00,SE,134,7.0,8.0,74,0.00,,,0.00,6.000000,,2013-07-01 12:33:00,
2013-07-01 06:43:00,62.0,54.0,-100.00,SE,134,7.0,8.0,74,0.00,,,0.00,6.000000,,2013-07-01 12:43:00,
2013-07-01 06:53:00,62.0,54.0,-100.00,SE,134,7.0,8.0,74,0.00,,,0.00,6.000000,,2013-07-01 12:53:00,
2013-07-01 07:33:00,65.0,56.0,-100.00,SE,144,6.0,8.0,74,0.00,,,0.00,109.000000,,2013-07-01 13:33:00,
2013-07-01 07:43:00,65.0,56.0,-100.00,SE,144,6.0,8.0,74,0.00,,,0.00,109.000000,,2013-07-01 13:43:00,
2013-07-01 07:53:00,65.0,56.0,-100.00,SE,144,6.0,8.0,74,0.00,,,0.00,109.000000,,2013-07-01 13:53:00,
2013-07-01 08:34:00,70.0,58.0,-100.00,SE,135,6.0,9.0,65,0.00,,,0.00,276.000000,,2013-07-01 14:34:00,
2013-07-01 08:43:00,70.0,58.0,-100.00,SE,135,6.0,9.0,65,0.00,,,0.00,276.000000,,2013-07-01 14:43:00,
2013-07-01 08:52:00,70.0,58.0,-100.00,SE,135,6.0,9.0,65,0.00,,,0.00,276.000000,,2013-07-01 14:52:00,
2013-07-01 09:34:00,76.0,58.0,-100.00,South,169,5.0,8.0,54,0.00,,,0.00,446.000000,,2013-07-01 15:34:00,
2013-07-01 09:43:00,76.0,58.0,-100.00,South,169,5.0,8.0,54,0.00,,,0.00,446.000000,,2013-07-01 15:43:00,
2013-07-01 09:52:00,76.0,58.0,-100.00,South,169,5.0,8.0,54,0.00,,,0.00,446.000000,,2013-07-01 15:52:00,
2013-07-01 10:33:00,83.0,61.0,-100.00,SSW,195,2.0,7.0,48,0.00,,,0.00,608.000000,,2013-07-01 16:33:00,
2013-07-01 10:44:00,83.0,61.0,-100.00,SSW,195,2.0,7.0,48,0.00,,,0.00,608.000000,,2013-07-01 16:44:00,
2013-07-01 10:53:00,83.0,61.0,-100.00,SSW,195,2.0,7.0,48,0.00,,,0.00,608.000000,,2013-07-01 16:53:00,
2013-07-01 11:34:00,85.0,58.0,-100.00,NNW,332,4.0,7.0,40,0.00,,,0.00,745.000000,,2013-07-01 17:34:00,
2013-07-01 11:43:00,85.0,58.0,-100.00,NNW,332,4.0,7.0,40,0.00,,,0.00,745.000000,,2013-07-01 17:43:00,
2013-07-01 11:53:00,85.0,58.0,-100.00,NNW,332,4.0,7.0,40,0.00,,,0.00,745.000000,,2013-07-01 17:53:00,
2013-07-01 12:33:00,88.0,58.0,-100.00,NE,38,4.0,10.0,37,0.00,,,0.00,843.000000,,2013-07-01 18:33:00,
2013-07-01 12:43:00,88.0,58.0,-100.00,NE,38,4.0,10.0,37,0.00,,,0.00,843.000000,,2013-07-01 18:43:00,
2013-07-01 12:52:00,88.0,58.0,-100.00,NE,38,4.0,10.0,37,0.00,,,0.00,843.000000,,2013-07-01 18:52:00,
2013-07-01 13:33:00,90.0,52.0,-100.00,ESE,111,5.0,10.0,28,0.00,,,0.00,907.000000,,2013-07-01 19:33:00,
2013-07-01 13:44:00,90.0,52.0,-100.00,ESE,111,5.0,10.0,28,0.00,,,0.00,907.000000,,2013-07-01 19:44:00,
2013-07-01 13:52:00,90.0,52.0,-100.00,ESE,111,5.0,10.0,28,0.00,,,0.00,907.000000,,2013-07-01 19:52:00,
2013-07-01 14:34:00,92.0,55.0,-100.00,WNW,299,5.0,10.0,29,0.00,,,0.00,838.000000,,2013-07-01 20:34:00,
2013-07-01 14:43:00,92.0,55.0,-100.00,WNW,299,5.0,10.0,29,0.00,,,0.00,838.000000,,2013-07-01 20:43:00,
2013-07-01 14:52:00,92.0,55.0,-100.00,WNW,299,5.0,10.0,29,0.00,,,0.00,838.000000,,2013-07-01 20:52:00,
2013-07-01 15:34:00,90.0,50.0,-100.00,NE,47,6.0,10.0,26,0.00,,,0.00,526.000000,,2013-07-01 21:34:00,
2013-07-01 15:43:00,90.0,50.0,-100.00,NE,47,6.0,10.0,26,0.00,,,0.00,526.000000,,2013-07-01 21:43:00,
2013-07-01 15:53:00,90.0,50.0,-100.00,NE,47,6.0,10.0,26,0.00,,,0.00,526.000000,,2013-07-01 21:53:00,
2013-07-01 16:33:00,91.0,51.0,-100.00,NNE,33,5.0,19.0,26,0.00,,,0.00,627.000000,,2013-07-01 22:33:00,
2013-07-01 16:43:00,91.0,51.0,-100.00,NNE,33,5.0,19.0,26,0.00,,,0.00,627.000000,,2013-07-01 22:43:00,
2013-07-01 16:53:00,91.0,51.0,-100.00,NNE,33,5.0,19.0,26,0.00,,,0.00,627.000000,,2013-07-01 22:53:00,
2013-07-01 17:33:00,92.0,52.0,-100.00,NNW,345,6.0,12.0,26,0.00,,,0.00,608.000000,,2013-07-01 23:33:00,
2013-07-01 17:44:00,92.0,52.0,-100.00,NNW,345,6.0,12.0,26,0.00,,,0.00,608.000000,,2013-07-01 23:44:00,
2013-07-01 17:53:00,92.0,52.0,-100.00,NNW,345,6.0,12.0,26,0.00,,,0.00,608.000000,,2013-07-01 23:53:00,
2013-07-01 18:34:00,89.0,51.0,-100.00,NE,35,10.0,15.0,27,0.00,,,0.00,530.000000,,2013-07-02 00:34:00,
2013-07-01 18:43:00,89.0,51.0,-100.00,NE,35,10.0,15.0,27,0.00,,,0.00,530.000000,,2013-07-02 00:43:00,
2013-07-01 18:53:00,89.0,51.0,-100.00,NE,35,10.0,15.0,27,0.00,,,0.00,530.000000,,2013-07-02 00:53:00,
2013-07-01 19:33:00,89.0,53.0,-100.00,NE,34,5.0,11.0,29,0.00,,,0.00,276.000000,,2013-07-02 01:33:00,
2013-07-01 19:43:00,89.0,53.0,-100.00,NE,34,5.0,11.0,29,0.00,,,0.00,276.000000,,2013-07-02 01:43:00,
2013-07-01 19:53:00,89.0,53.0,-100.00,NE,34,5.0,11.0,29,0.00,,,0.00,276.000000,,2013-07-02 01:53:00,
2013-07-01 20:33:00,85.0,53.0,-100.00,ENE,64,6.0,12.0,33,0.00,,,0.00,167.000000,,2013-07-02 02:33:00,
2013-07-01 20:43:00,85.0,53.0,-100.00,ENE,64,6.0,12.0,33,0.00,,,0.00,167.000000,,2013-07-02 02:43:00,
2013-07-01 20:53:00,85.0,53.0,-100.00,ENE,64,6.0,12.0,33,0.00,,,0.00,167.000000,,2013-07-02 02:53:00,
2013-07-01 21:24:00,80.0,55.0,-100.00,East,79,7.0,9.0,42,0.00,,,0.00,34.000000,,2013-07-02 03:24:00,
2013-07-01 21:32:00,80.0,55.0,-100.00,East,79,7.0,9.0,42,0.00,,,0.00,34.000000,,2013-07-02 03:32:00,
2013-07-01 21:43:00,80.0,55.0,-100.00,East,79,7.0,9.0,42,0.00,,,0.00,34.000000,,2013-07-02 03:43:00,
2013-07-01 21:53:00,80.0,55.0,-100.00,East,79,7.0,9.0,42,0.00,,,0.00,34.000000,,2013-07-02 03:53:00,
2013-07-01 22:22:00,78.0,54.0,-100.00,East,86,8.0,11.0,43,0.00,,,0.00,1.000000,,2013-07-02 04:22:00,
2013-07-01 22:32:00,78.0,54.0,-100.00,East,86,8.0,11.0,43,0.00,,,0.00,1.000000,,2013-07-02 04:32:00,
2013-07-01 22:42:00,78.0,54.0,-100.00,East,86,8.0,11.0,43,0.00,,,0.00,1.000000,,2013-07-02 04:42:00,
2013-07-01 22:53:00,78.0,54.0,-100.00,East,86,8.0,11.0,43,0.00,,,0.00,1.000000,,2013-07-02 04:53:00,
2013-07-01 23:32:00,70.0,53.0,-100.00,SE,141,5.0,11.0,55,0.00,,,0.00,0.000000,,2013-07-02 05:32:00,
2013-07-01 23:43:00,70.0,53.0,-100.00,SE,141,5.0,11.0,55,0.00,,,0.00,0.000000,,2013-07-02 05:43:00,
2013-07-01 23:53:00,70.0,53.0,-100.00,SE,141,5.0,11.0,55,0.00,,,0.00,0.000000,,2013-07-02 05:53:00,